Porterville, Utah
Current Conditions -  °F | °C
As of 2:58 PM on Sunday 25 Jan 2015 (Local Time) from KHIF Reporting Station
Clear Clear  
Wind Chill: 45°   Ceiling: Unl
Heat Index: 47°   Visibility: 10mi
Dew Point: 24°   Wind: 5mph
Humidity: 40%   Direction: 320°NW
Pressure: 30.42"   Gusts: NA
Location:  41.0884°N, 111.576°W
Report Text: KHIF 252158Z AUTO 32004KT 10SM CLR 09/M04 A3042 RMK AO2 SLP295 T00851044
Loading
Personal Weather Stations






























Interactive Weather Map New forecast layout! Learn more

10-Day Weather Forecast

Advertisements
Track Severe Weather on mobile